METAR

Station
VRMM
METAR VRMM 181300Z 19006KT 9999 SCT017TCU BKN023 30/25 Q1011 TEMPO 5000 SHRA=
VRMH
METAR VRMH 181300Z 25005KT 9999 FEW018TCU BKN260 29/25 Q1011=
VRMK
METAR VRMK 181300Z 16005KT 9999 FEW018 BKN260 29/23 Q1012=
VRMT
METAR VRMT 181300Z 16006KT 9999 FEW018 SCT270 29/24 Q1012=
VRMG
METAR VRMG 181300Z 18005KT 9999 FEW019 28/23 Q1012 NOSIG=
Last Updated : 2021-04-18 18:02:41

SPECI

Station
VRMM
VRMH
VRMK
VRMT
VRMG
Last Updated : 2021-04-18 18:02:41